Aérodrome :
LOGIN :

S'inscrire | Disclaimer

   EN    FR    IT 

 










Légende :    VFR   VFR Marginal   IFR   IFR Intensif   IFR Très Intensif
Visi : 
Plafond : 
>= 8 km
>= 3000ft
5 à 8 km
1000 à 3000 ft
1500m à 5 km
500 à 1000 ft
800 à 1500m
200 à 500 ft
< 800m
< 200 ft
Symboles :   Orages  Brouillard  Fortes neiges  Fortes précipitations  Vent > 20 kt
SIGMETs :   Divers  Orages  Givrage  Turbulence  Onde Orograph.  Cendres Volcan.







- Altitude de l'aérodrome : 464 ft
- Code IATA : EVX
- Voir les cartes d'approche


LFOE - Evreux

DERNIER METAR :
  • 232130Z AUTO 21012KT 9999 BKN005 OVC009 12/11 Q1022

METARs EXPIRÉS :
  • 232100Z AUTO 21011KT 9999 BKN006 OVC011 12/11 Q1022
  • 232030Z AUTO 22011KT 5000 BR OVC008 12/11 Q1021
  • 232000Z AUTO 22012KT 9999 BKN009 OVC014 12/11 Q1022
  • 231930Z AUTO 22013KT 9999 BKN011 OVC016 12/11 Q1022
  • 231900Z AUTO 22014KT 9999 BKN013 OVC018 12/10 Q1021

TAF TAF LFOE
Valide du 23 à 21h jusqu'au 24 à 21h UTC


232000Z 2321/2421 22015G25KT 9999 OVC009
TEMPO 2321/2408 3000 -DZRA OVC003
BECMG 2408/2411 21020G35KT BKN020
TEMPO 2417/2421 3000 RA BKN009
Pas de NOTAMs connus pour ce terrain.



MET'MAP, la Météo Aéronautique d'un coup d'oeil ! - Copyright ORBIFLY Décembre 2007 - Disclaimer

ORBIFLY MET'MAP TEAM :

Programmation & Développement : Alexandra Zaïnal
Conception & Développement : Baudouin d'Aumeries
Co-Programmation & Développement : Marc-Olivier Méhu
Soutien technique & logistique : Manuel Goepfert

Contact : metmap@orbifly.com




SOURCES & CREDITS :

   NOAA